Time;durP1;ratioP1;P1;durP2;ratioP2;P2;SDS_P1;SDS_P2;PMS_P1;PMS_P2;Temp;Humidity;BMP_temperature;BMP_pressure;BME280_temperature;BME280_humidity;BME280_pressure;Samples;Min_cycle;Max_cycle;Signal;HPM_P1;HPM_P2
2022/09/15 00:01:02;;;;;;;5.18;1.25;;;17.40;99.90;;;;;;5053152;28;20432;-75
2022/09/15 00:03:30;;;;;;;2.70;0.88;;;17.50;99.90;;;;;;5053145;28;20024;-75
2022/09/15 00:05:57;;;;;;;4.68;1.33;;;17.50;99.90;;;;;;5053153;28;20025;-75
2022/09/15 00:08:25;;;;;;;4.10;1.10;;;17.40;99.90;;;;;;5051833;28;20032;-75
2022/09/15 00:10:57;;;;;;;4.28;1.05;;;17.30;99.90;;;;;;5054087;28;20024;-75
2022/09/15 00:13:25;;;;;;;3.13;1.25;;;17.20;99.90;;;;;;5052723;28;20130;-74
2022/09/15 00:15:53;;;;;;;6.72;0.90;;;17.20;99.90;;;;;;5053007;28;20024;-74
2022/09/15 00:18:21;;;;;;;3.75;1.30;;;17.50;99.90;;;;;;5052876;28;20024;-72
2022/09/15 00:20:48;;;;;;;3.15;0.95;;;17.80;99.90;;;;;;5051645;28;20021;-74
2022/09/15 00:23:16;;;;;;;2.80;1.02;;;18.10;99.90;;;;;;5052956;28;20032;-75
2022/09/15 00:25:49;;;;;;;2.35;1.25;;;18.40;99.90;;;;;;5052709;28;20046;-75
2022/09/15 00:28:18;;;;;;;1.55;0.68;;;18.90;99.90;;;;;;5051504;28;20090;-75
2022/09/15 00:30:48;;;;;;;3.35;0.70;;;18.80;99.90;;;;;;5056591;28;20028;-75
2022/09/15 00:33:17;;;;;;;0.95;0.68;;;18.80;99.90;;;;;;5055681;28;20025;-74
2022/09/15 00:35:48;;;;;;;3.10;0.68;;;19.10;99.90;;;;;;5057102;28;20561;-73
2022/09/15 00:38:17;;;;;;;2.63;0.90;;;19.00;99.90;;;;;;5056710;28;20021;-75
2022/09/15 00:40:51;;;;;;;3.00;0.82;;;19.40;99.90;;;;;;5057060;28;20477;-75
2022/09/15 00:43:22;;;;;;;2.60;0.90;;;19.50;99.90;;;;;;5055480;28;20021;-75
2022/09/15 00:45:51;;;;;;;4.40;1.00;;;19.60;99.90;;;;;;5056731;28;20051;-74
2022/09/15 00:48:21;;;;;;;3.25;0.80;;;19.50;99.90;;;;;;5056840;28;20029;-74
2022/09/15 00:50:52;;;;;;;3.08;1.00;;;19.20;99.90;;;;;;5057834;28;20057;-75
2022/09/15 00:53:22;;;;;;;2.40;0.80;;;18.80;99.90;;;;;;5055205;28;20087;-75
2022/09/15 00:55:51;;;;;;;2.80;0.77;;;18.70;99.90;;;;;;5055057;28;20056;-76
2022/09/15 00:58:30;;;;;;;3.65;1.02;;;18.40;99.90;;;;;;5056440;28;20109;-76
2022/09/15 01:01:00;;;;;;;3.28;0.82;;;18.30;99.90;;;;;;5055505;28;20501;-76
2022/09/15 01:03:32;;;;;;;3.42;1.35;;;18.60;99.90;;;;;;5057430;28;20020;-77
2022/09/15 01:06:09;;;;;;;4.10;1.23;;;18.70;99.90;;;;;;5056665;28;20433;-76
2022/09/15 01:08:42;;;;;;;3.25;0.98;;;18.60;99.90;;;;;;5056034;28;20025;-75
2022/09/15 01:11:10;;;;;;;2.72;1.00;;;18.40;99.90;;;;;;5055735;28;20047;-75
2022/09/15 01:13:37;;;;;;;5.35;1.38;;;18.10;99.90;;;;;;5055829;28;20049;-76
2022/09/15 01:16:41;;;;;;;3.28;1.10;;;17.90;99.90;;;;;;5055743;28;20099;-74
2022/09/15 01:19:17;;;;;;;5.35;1.17;;;18.00;99.90;;;;;;5044063;28;20449;-76
2022/09/15 01:21:54;;;;;;;3.42;1.00;;;18.10;99.90;;;;;;5057064;28;20027;-75
2022/09/15 01:24:58;;;;;;;2.97;0.90;;;18.10;99.90;;;;;;5056124;28;20059;-75
2022/09/15 01:27:51;;;;;;;3.72;1.25;;;18.20;99.90;;;;;;5056534;28;20025;-75
2022/09/15 01:30:22;;;;;;;4.68;1.30;;;18.20;99.90;;;;;;5056045;28;20103;-74
2022/09/15 01:33:10;;;;;;;2.50;0.90;;;18.20;99.90;;;;;;5056282;28;20426;-76
2022/09/15 01:36:01;;;;;;;3.25;1.00;;;18.10;99.90;;;;;;5056231;28;20021;-73
2022/09/15 01:38:38;;;;;;;1.48;0.93;;;18.10;99.90;;;;;;5055930;28;20446;-75
2022/09/15 01:41:11;;;;;;;2.75;1.10;;;18.20;99.90;;;;;;5055340;28;20101;-75
2022/09/15 01:43:51;;;;;;;2.22;1.35;;;18.20;99.90;;;;;;5055936;28;20074;-75
2022/09/15 01:46:22;;;;;;;2.03;1.02;;;18.30;99.90;;;;;;5055942;28;20028;-75
2022/09/15 01:48:51;;;;;;;1.60;1.00;;;18.40;99.90;;;;;;5054429;28;20074;-76
2022/09/15 01:51:19;;;;;;;3.45;1.10;;;18.40;99.90;;;;;;5055756;28;20021;-76
2022/09/15 01:53:47;;;;;;;1.98;0.95;;;18.50;99.90;;;;;;5054444;28;20025;-75
2022/09/15 01:56:15;;;;;;;1.48;0.90;;;18.50;99.90;;;;;;5054311;28;20024;-76
2022/09/15 01:58:42;;;;;;;1.45;0.90;;;18.40;99.90;;;;;;5054417;28;20025;-74
2022/09/15 02:01:19;;;;;;;1.70;0.90;;;18.50;99.90;;;;;;5055773;28;20013;-74
2022/09/15 02:03:55;;;;;;;1.20;0.85;;;18.30;99.90;;;;;;5055381;28;20031;-75
2022/09/15 02:06:34;;;;;;;3.45;0.95;;;18.60;99.90;;;;;;5055931;28;20128;-75
2022/09/15 02:09:17;;;;;;;1.90;1.00;;;18.50;99.90;;;;;;5055738;28;20112;-75
2022/09/15 02:11:56;;;;;;;3.35;1.10;;;18.50;99.90;;;;;;5054101;28;20111;-75
2022/09/15 02:14:55;;;;;;;2.75;1.10;;;18.80;99.90;;;;;;5055839;28;20544;-74
2022/09/15 02:17:23;;;;;;;2.83;1.10;;;19.00;99.90;;;;;;5055104;28;20028;-75
2022/09/15 02:19:57;;;;;;;2.78;1.20;;;19.30;99.90;;;;;;5054804;28;20051;-75
2022/09/15 02:22:35;;;;;;;1.73;1.10;;;19.40;99.90;;;;;;5053913;28;20048;-77
2022/09/15 02:25:15;;;;;;;2.50;0.90;;;19.20;99.90;;;;;;5053965;28;20473;-77
2022/09/15 02:27:48;;;;;;;1.67;0.80;;;19.10;99.90;;;;;;5055241;28;20388;-75
2022/09/15 02:30:18;;;;;;;3.00;1.00;;;18.80;99.90;;;;;;5055311;28;20017;-76
2022/09/15 02:33:05;;;;;;;2.83;1.10;;;18.40;99.90;;;;;;5055681;28;20100;-75
2022/09/15 02:35:35;;;;;;;1.67;0.80;;;18.30;99.90;;;;;;5054645;28;20059;-75
2022/09/15 02:38:07;;;;;;;3.33;1.13;;;18.20;99.90;;;;;;5054179;28;20028;-75
2022/09/15 02:40:38;;;;;;;1.98;0.70;;;18.00;99.90;;;;;;5054812;28;20484;-75
2022/09/15 02:43:11;;;;;;;1.38;0.82;;;18.10;99.90;;;;;;5054821;28;20098;-75
2022/09/15 02:45:39;;;;;;;2.17;1.17;;;18.20;99.90;;;;;;5055419;28;20029;-76
2022/09/15 02:48:10;;;;;;;1.08;0.80;;;18.10;99.90;;;;;;5055092;28;20052;-76
2022/09/15 02:50:38;;;;;;;2.50;1.17;;;18.20;99.90;;;;;;5054472;28;20016;-75
2022/09/15 02:53:06;;;;;;;2.42;1.15;;;18.40;99.90;;;;;;5052231;28;20025;-75
2022/09/15 02:55:34;;;;;;;4.32;1.33;;;18.30;99.90;;;;;;5054407;28;20021;-76
2022/09/15 02:58:04;;;;;;;2.97;1.00;;;18.20;99.90;;;;;;5053039;28;20025;-75
2022/09/15 03:00:32;;;;;;;2.22;0.95;;;18.20;99.90;;;;;;5052776;28;20029;-75
2022/09/15 03:02:59;;;;;;;2.22;0.90;;;18.20;99.90;;;;;;5052950;28;20037;-75
2022/09/15 03:05:28;;;;;;;3.10;1.23;;;18.20;99.90;;;;;;5052820;28;20071;-76
2022/09/15 03:07:56;;;;;;;1.77;1.00;;;18.10;99.90;;;;;;5054204;28;20025;-75
2022/09/15 03:10:24;;;;;;;1.98;0.90;;;18.10;99.90;;;;;;5052815;28;20053;-75
2022/09/15 03:12:54;;;;;;;1.42;0.88;;;18.00;99.90;;;;;;5053676;28;20041;-76
2022/09/15 03:15:24;;;;;;;1.58;1.05;;;17.90;99.90;;;;;;5053990;28;20105;-75
2022/09/15 03:17:52;;;;;;;2.35;1.23;;;18.10;99.90;;;;;;5053998;28;20044;-76
2022/09/15 03:20:27;;;;;;;3.53;1.05;;;18.00;99.90;;;;;;5052527;28;20492;-76
2022/09/15 03:22:54;;;;;;;2.75;0.98;;;18.00;99.90;;;;;;5054060;28;20473;-75
2022/09/15 03:25:22;;;;;;;3.03;1.20;;;17.80;99.90;;;;;;5053880;28;20532;-75
2022/09/15 03:27:49;;;;;;;2.40;0.93;;;17.70;99.90;;;;;;5053736;28;20376;-75
2022/09/15 03:30:17;;;;;;;2.20;0.85;;;17.70;99.90;;;;;;5053886;28;20021;-75
2022/09/15 03:32:44;;;;;;;2.08;0.98;;;17.70;99.90;;;;;;5054047;28;20412;-75
2022/09/15 03:35:12;;;;;;;3.97;1.75;;;17.50;99.90;;;;;;5052480;28;20112;-75
2022/09/15 03:37:39;;;;;;;2.10;0.98;;;17.40;99.90;;;;;;5053516;28;20481;-75
2022/09/15 03:40:09;;;;;;;5.20;1.50;;;17.20;99.90;;;;;;5052378;28;20025;-75
2022/09/15 03:42:36;;;;;;;1.98;0.95;;;17.10;99.90;;;;;;5052456;28;20037;-75
2022/09/15 03:45:04;;;;;;;1.02;0.88;;;17.00;99.90;;;;;;5052248;28;20075;-76
2022/09/15 03:47:31;;;;;;;1.25;0.85;;;16.90;99.90;;;;;;5053331;28;20017;-75
2022/09/15 03:49:58;;;;;;;2.80;1.20;;;16.60;99.90;;;;;;5052208;28;20025;-75
2022/09/15 03:52:26;;;;;;;2.60;1.13;;;16.40;99.90;;;;;;5053319;28;20021;-75
2022/09/15 03:54:54;;;;;;;1.85;1.00;;;16.50;99.90;;;;;;5051914;28;20021;-75
2022/09/15 03:57:21;;;;;;;2.53;1.13;;;16.40;99.90;;;;;;5051985;28;20465;-75
2022/09/15 03:59:48;;;;;;;2.47;1.35;;;16.40;99.90;;;;;;5053408;28;20021;-76
2022/09/15 04:02:15;;;;;;;3.00;1.10;;;16.20;99.90;;;;;;5052124;28;20025;-75
2022/09/15 04:04:43;;;;;;;1.40;1.02;;;16.10;99.90;;;;;;5052764;28;20533;-74
2022/09/15 04:07:10;;;;;;;2.17;1.17;;;16.10;99.90;;;;;;5051616;28;20522;-74
2022/09/15 04:09:37;;;;;;;3.63;1.30;;;15.90;99.90;;;;;;5052878;28;20017;-75
2022/09/15 04:12:05;;;;;;;2.75;1.33;;;15.80;99.90;;;;;;5052845;28;20082;-75
2022/09/15 04:14:35;;;;;;;;;;;15.60;99.90;;;;;;5053315;28;20041;-75
2022/09/15 04:17:02;;;;;;;1.98;1.00;;;15.50;99.90;;;;;;5053005;28;19988;-75
2022/09/15 04:19:29;;;;;;;2.67;1.10;;;15.40;99.90;;;;;;5052392;28;20051;-74
2022/09/15 04:21:57;;;;;;;2.97;1.77;;;15.40;99.90;;;;;;5051599;28;20064;-75
2022/09/15 04:24:24;;;;;;;3.10;1.50;;;15.40;99.90;;;;;;5051131;28;20025;-74
2022/09/15 04:26:51;;;;;;;1.40;1.10;;;15.30;99.90;;;;;;5052620;28;20021;-74
2022/09/15 04:29:19;;;;;;;3.13;1.20;;;15.30;99.90;;;;;;5052404;28;20392;-75
2022/09/15 04:31:46;;;;;;;4.22;1.92;;;15.20;99.90;;;;;;5051714;28;20029;-75
2022/09/15 04:34:14;;;;;;;3.28;1.45;;;15.20;99.90;;;;;;5052920;28;20064;-75
2022/09/15 04:36:41;;;;;;;2.50;1.60;;;15.20;99.90;;;;;;5052990;28;20476;-75
2022/09/15 04:39:09;;;;;;;2.55;1.50;;;15.20;99.90;;;;;;5052625;28;20564;-75
2022/09/15 04:41:36;;;;;;;4.22;1.65;;;15.10;99.90;;;;;;5052942;28;20017;-75
2022/09/15 04:44:03;;;;;;;5.30;1.80;;;15.00;99.90;;;;;;5052815;28;20021;-74
2022/09/15 04:46:31;;;;;;;3.63;1.80;;;14.90;99.90;;;;;;5052864;28;20021;-74
2022/09/15 04:48:58;;;;;;;3.45;1.77;;;14.80;99.90;;;;;;5052478;28;20481;-75
2022/09/15 04:51:26;;;;;;;4.03;2.00;;;14.80;99.90;;;;;;5052662;28;20025;-75
2022/09/15 04:53:53;;;;;;;3.15;1.80;;;14.80;99.90;;;;;;5050765;28;20120;-75
2022/09/15 04:56:23;;;;;;;3.60;1.70;;;14.80;99.90;;;;;;5051962;28;20092;-76
2022/09/15 04:58:56;;;;;;;4.33;1.90;;;14.80;99.90;;;;;;5052657;28;20017;-76
2022/09/15 05:01:26;;;;;;;3.50;1.88;;;14.70;99.90;;;;;;5053078;28;20258;-76
2022/09/15 05:03:54;;;;;;;3.63;1.70;;;14.70;99.90;;;;;;5052929;28;20029;-76
2022/09/15 05:06:24;;;;;;;1.90;1.70;;;14.70;99.90;;;;;;5051100;28;20429;-76
2022/09/15 05:08:54;;;;;;;4.88;1.70;;;14.70;99.90;;;;;;5051207;28;20028;-76
2022/09/15 05:11:22;;;;;;;2.67;2.00;;;14.70;99.90;;;;;;5052589;28;20385;-75
2022/09/15 05:13:50;;;;;;;2.70;2.00;;;14.60;99.90;;;;;;5052154;28;20045;-75
2022/09/15 05:16:20;;;;;;;2.03;1.70;;;14.60;99.90;;;;;;5052312;28;20065;-75
2022/09/15 05:18:50;;;;;;;3.60;1.70;;;14.60;99.90;;;;;;5056136;28;20388;-75
2022/09/15 05:21:19;;;;;;;2.75;1.60;;;14.60;99.90;;;;;;5056103;28;20025;-75
2022/09/15 05:23:47;;;;;;;3.17;1.80;;;14.50;99.90;;;;;;5054711;28;20459;-75
2022/09/15 05:26:20;;;;;;;3.75;1.65;;;14.60;99.90;;;;;;5055579;28;20032;-74
2022/09/15 05:28:48;;;;;;;4.18;1.73;;;14.70;99.90;;;;;;5055778;28;20048;-76
2022/09/15 05:31:25;;;;;;;3.53;2.20;;;14.80;99.90;;;;;;5055813;28;20096;-75
2022/09/15 05:33:53;;;;;;;2.30;1.73;;;15.00;99.90;;;;;;5055902;28;20404;-76
2022/09/15 05:36:23;;;;;;;3.78;2.00;;;14.90;99.90;;;;;;5037815;28;20032;-75
2022/09/15 05:38:58;;;;;;;4.20;2.42;;;15.10;99.90;;;;;;5055782;28;20082;-75
2022/09/15 05:41:27;;;;;;;4.05;1.90;;;15.10;99.90;;;;;;5054353;28;20109;-77
2022/09/15 05:43:58;;;;;;;3.63;2.03;;;15.10;99.90;;;;;;5055617;28;20032;-77
2022/09/15 05:46:27;;;;;;;3.15;2.00;;;15.00;99.90;;;;;;5055572;28;20508;-78
2022/09/15 05:48:57;;;;;;;4.75;1.92;;;15.00;99.90;;;;;;5054382;28;20036;-77
2022/09/15 05:51:24;;;;;;;2.25;2.03;;;15.00;99.90;;;;;;5055801;28;20110;-76
2022/09/15 05:53:52;;;;;;;3.72;2.30;;;15.20;99.90;;;;;;5054286;28;20029;-76
2022/09/15 05:56:20;;;;;;;4.93;2.80;;;15.40;99.90;;;;;;5055447;28;20032;-76
2022/09/15 05:58:48;;;;;;;6.15;2.92;;;15.40;99.90;;;;;;5054308;28;20052;-77
2022/09/15 06:01:18;;;;;;;2.45;2.22;;;15.30;99.90;;;;;;5055183;28;20045;-77
2022/09/15 06:03:47;;;;;;;3.88;2.20;;;15.40;99.90;;;;;;5056113;28;20465;-76
2022/09/15 06:06:14;;;;;;;4.80;3.00;;;15.30;99.90;;;;;;5055115;28;20388;-76
2022/09/15 06:08:48;;;;;;;4.63;2.90;;;15.10;99.90;;;;;;5055283;28;20021;-76
2022/09/15 06:11:20;;;;;;;5.95;3.35;;;14.90;99.90;;;;;;5055298;28;20025;-78
2022/09/15 06:13:48;;;;;;;6.45;3.40;;;14.70;99.90;;;;;;5055092;28;20041;-77
2022/09/15 06:16:21;;;;;;;5.68;3.20;;;14.70;99.90;;;;;;5055138;28;20056;-77
2022/09/15 06:18:49;;;;;;;6.45;4.10;;;14.70;99.90;;;;;;5055553;28;20025;-77
2022/09/15 06:21:18;;;;;;;5.72;3.50;;;14.70;99.90;;;;;;5054983;28;20027;-78
2022/09/15 06:23:51;;;;;;;6.65;3.53;;;14.70;99.90;;;;;;5055189;28;20029;-77
2022/09/15 06:26:19;;;;;;;4.13;3.22;;;14.70;99.90;;;;;;5052195;28;20025;-76
2022/09/15 06:28:57;;;;;;;5.45;3.58;;;14.60;99.90;;;;;;5053606;28;20056;-76
2022/09/15 06:31:26;;;;;;;5.30;3.63;;;14.60;99.90;;;;;;5052507;28;20028;-76
2022/09/15 06:33:56;;;;;;;4.57;3.80;;;14.60;99.90;;;;;;5053245;28;20029;-75
2022/09/15 06:36:28;;;;;;;6.53;3.97;;;14.60;99.90;;;;;;5051511;28;20501;-75
2022/09/15 06:38:57;;;;;;;6.38;3.80;;;14.60;99.90;;;;;;5052187;28;20078;-76
2022/09/15 06:41:25;;;;;;;6.82;4.05;;;14.60;99.90;;;;;;5052240;28;20028;-76
2022/09/15 06:43:52;;;;;;;4.78;3.33;;;14.60;99.90;;;;;;5052629;28;20527;-74
2022/09/15 06:46:22;;;;;;;5.25;4.07;;;14.60;99.90;;;;;;5051186;28;20037;-74
2022/09/15 06:48:53;;;;;;;5.35;3.75;;;14.50;99.90;;;;;;5051189;28;20484;-74
2022/09/15 06:51:21;;;;;;;;;;;14.50;99.90;;;;;;5052766;28;20025;-74
2022/09/15 06:53:49;;;;;;;4.45;4.05;;;14.50;99.90;;;;;;5052917;28;19908;-75
2022/09/15 06:56:18;;;;;;;6.60;4.00;;;14.50;99.90;;;;;;5053210;28;20017;-76
2022/09/15 06:58:50;;;;;;;7.93;4.87;;;14.40;99.90;;;;;;5054277;28;20547;-76
2022/09/15 07:01:30;;;;;;;6.03;3.90;;;14.30;99.90;;;;;;5054159;28;20025;-76
2022/09/15 07:03:59;;;;;;;4.68;4.00;;;14.40;99.90;;;;;;5053112;28;20025;-76
2022/09/15 07:06:32;;;;;;;7.55;3.95;;;14.40;99.90;;;;;;5054347;28;20036;-76
2022/09/15 07:09:01;;;;;;;5.78;4.10;;;14.40;99.90;;;;;;5054175;28;20025;-75
2022/09/15 07:11:29;;;;;;;7.18;4.45;;;14.30;99.90;;;;;;5052671;28;20029;-77
2022/09/15 07:13:57;;;;;;;6.55;4.10;;;14.30;99.90;;;;;;5052671;28;20128;-76
2022/09/15 07:16:25;;;;;;;7.28;4.30;;;14.40;99.90;;;;;;5053861;28;20469;-76
2022/09/15 07:19:00;;;;;;;7.47;4.47;;;14.30;99.90;;;;;;5053970;28;20381;-77
2022/09/15 07:21:28;;;;;;;6.47;4.60;;;14.30;99.90;;;;;;5054095;28;20476;-76
2022/09/15 07:23:58;;;;;;;5.95;4.45;;;14.30;99.90;;;;;;5052729;28;20087;-76
2022/09/15 07:26:29;;;;;;;11.45;4.85;;;14.30;99.90;;;;;;5052564;28;20029;-75
2022/09/15 07:28:59;;;;;;;8.05;4.78;;;14.30;99.90;;;;;;5053588;28;20060;-76
2022/09/15 07:31:28;;;;;;;5.90;4.67;;;14.30;99.90;;;;;;5053585;28;20052;-75
2022/09/15 07:33:57;;;;;;;7.53;4.72;;;14.30;99.90;;;;;;5053286;28;20370;-76
2022/09/15 07:36:25;;;;;;;8.32;5.20;;;14.30;99.90;;;;;;5052244;28;20024;-76
2022/09/15 07:38:52;;;;;;;8.27;5.00;;;14.30;99.90;;;;;;5051462;28;20107;-76
2022/09/15 07:41:25;;;;;;;6.93;5.22;;;14.30;99.90;;;;;;5051576;28;20021;-75
2022/09/15 07:43:54;;;;;;;7.22;5.03;;;14.30;99.90;;;;;;5052814;28;20719;-76
2022/09/15 07:46:23;;;;;;;5.75;4.72;;;14.30;99.90;;;;;;5053251;28;20025;-76
2022/09/15 07:48:55;;;;;;;8.70;5.47;;;14.30;99.90;;;;;;5052196;28;20025;-76
2022/09/15 07:51:22;;;;;;;6.97;5.30;;;14.30;99.90;;;;;;5052189;28;20031;-76
2022/09/15 07:53:51;;;;;;;7.88;5.75;;;14.30;99.90;;;;;;5051569;28;20021;-75
2022/09/15 07:56:20;;;;;;;7.72;5.63;;;14.30;99.90;;;;;;5053000;28;20021;-75
2022/09/15 07:58:48;;;;;;;8.90;5.57;;;14.30;99.90;;;;;;5052908;28;20028;-76
2022/09/15 08:01:17;;;;;;;11.77;6.70;;;14.30;99.90;;;;;;5053308;28;20056;-75
2022/09/15 08:03:50;;;;;;;6.93;5.55;;;14.30;99.90;;;;;;5053168;28;20033;-76
2022/09/15 08:06:20;;;;;;;7.60;5.70;;;14.30;99.90;;;;;;5053222;28;20028;-75
2022/09/15 08:08:49;;;;;;;8.02;6.13;;;14.30;99.90;;;;;;5053228;28;20503;-76
2022/09/15 08:11:19;;;;;;;8.10;5.85;;;14.30;99.90;;;;;;5053181;28;20017;-77
2022/09/15 08:13:51;;;;;;;10.93;6.32;;;14.30;99.90;;;;;;5052969;28;20064;-75
2022/09/15 08:16:21;;;;;;;7.18;5.85;;;14.20;99.90;;;;;;5051927;28;20025;-76
2022/09/15 08:18:51;;;;;;;10.25;6.90;;;14.30;99.90;;;;;;5051946;28;20507;-76
2022/09/15 08:21:20;;;;;;;11.93;6.68;;;14.20;99.90;;;;;;5051906;28;20032;-77
2022/09/15 08:23:52;;;;;;;8.00;6.60;;;14.20;99.90;;;;;;5051825;28;20021;-77
2022/09/15 08:26:20;;;;;;;11.35;7.40;;;14.20;99.90;;;;;;5053136;28;20025;-75
2022/09/15 08:28:48;;;;;;;10.60;8.40;;;14.20;99.90;;;;;;5053051;28;20021;-76
2022/09/15 08:31:16;;;;;;;10.50;7.30;;;14.20;99.90;;;;;;5051753;28;20051;-76
2022/09/15 08:33:51;;;;;;;10.55;7.40;;;14.20;99.90;;;;;;5052946;28;20047;-76
2022/09/15 08:36:18;;;;;;;9.77;7.43;;;14.20;99.90;;;;;;5053177;28;20107;-76
2022/09/15 08:38:46;;;;;;;10.15;7.57;;;14.20;99.90;;;;;;5052368;28;20476;-74
2022/09/15 08:41:30;;;;;;;12.30;7.78;;;14.20;99.90;;;;;;5050820;28;20028;-75
2022/09/15 08:44:21;;;;;;;11.27;7.70;;;14.20;99.90;;;;;;5050715;28;20025;-76
2022/09/15 08:46:59;;;;;;;77.43;60.17;;;14.20;99.90;;;;;;5052905;28;20044;-77
2022/09/15 08:49:51;;;;;;;44.28;34.45;;;14.20;99.90;;;;;;5051689;28;20021;-76
2022/09/15 08:52:38;;;;;;;42.50;32.47;;;14.30;99.90;;;;;;5056892;28;20389;-76
2022/09/15 08:55:16;;;;;;;54.45;41.78;;;14.30;99.90;;;;;;5056303;28;20046;-75
2022/09/15 08:57:43;;;;;;;13.93;12.38;;;14.30;99.90;;;;;;5055493;28;20024;-76
2022/09/15 09:00:15;;;;;;;11.02;8.70;;;14.30;99.90;;;;;;5056736;28;20027;-76
2022/09/15 09:03:09;;;;;;;22.83;17.30;;;14.30;99.90;;;;;;5056965;28;20021;-75
2022/09/15 09:06:06;;;;;;;20.38;14.75;;;14.30;99.90;;;;;;5054973;28;20029;-76
2022/09/15 09:08:51;;;;;;;13.80;11.15;;;14.30;99.90;;;;;;5055638;28;20441;-77
2022/09/15 09:11:31;;;;;;;11.00;9.10;;;14.30;99.90;;;;;;5056782;28;20059;-77
2022/09/15 09:14:25;;;;;;;9.25;7.18;;;14.30;99.90;;;;;;5055027;28;20037;-78
2022/09/15 09:17:16;;;;;;;9.50;7.40;;;14.20;99.90;;;;;;5053602;28;20036;-78
2022/09/15 09:20:21;;;;;;;12.23;9.43;;;14.20;99.90;;;;;;5054345;28;20014;-78
2022/09/15 09:22:52;;;;;;;10.60;7.95;;;14.20;99.90;;;;;;5054457;28;20017;-77
2022/09/15 09:25:21;;;;;;;10.82;8.35;;;14.20;99.90;;;;;;5054500;28;20104;-77
2022/09/15 09:27:49;;;;;;;7.95;7.15;;;14.20;99.90;;;;;;5053212;28;20067;-76
2022/09/15 09:30:20;;;;;;;9.55;7.43;;;14.20;99.90;;;;;;5056156;28;20021;-79
2022/09/15 09:33:09;;;;;;;11.10;8.45;;;14.10;99.90;;;;;;5056145;28;20021;-77
2022/09/15 09:35:43;;;;;;;10.48;8.55;;;14.10;99.90;;;;;;5056241;28;20021;-77
2022/09/15 09:38:15;;;;;;;12.60;8.02;;;14.10;99.90;;;;;;5056202;28;20021;-78
2022/09/15 09:40:43;;;;;;;10.95;8.20;;;14.10;99.90;;;;;;5056092;28;20032;-78
2022/09/15 09:43:11;;;;;;;9.60;8.20;;;14.10;99.90;;;;;;5055827;28;20025;-80
2022/09/15 09:45:40;;;;;;;9.60;8.23;;;14.10;99.90;;;;;;5054823;28;20435;-80
2022/09/15 09:48:34;;;;;;;8.77;7.90;;;14.10;99.90;;;;;;5055767;28;20024;-80
2022/09/15 09:51:01;;;;;;;10.32;8.40;;;14.10;99.90;;;;;;5055441;28;20111;-79
2022/09/15 09:53:35;;;;;;;9.23;7.90;;;14.00;99.90;;;;;;5054505;28;20443;-78
2022/09/15 09:56:24;;;;;;;10.73;8.63;;;14.00;99.90;;;;;;5055580;28;20028;-79
2022/09/15 09:58:53;;;;;;;13.13;8.27;;;14.00;99.90;;;;;;5054259;28;20499;-77
2022/09/15 10:01:23;;;;;;;9.75;8.02;;;14.10;99.90;;;;;;5053960;28;20115;-76
2022/09/15 10:04:19;;;;;;;9.25;7.50;;;14.00;99.90;;;;;;5055288;28;20021;-77
2022/09/15 10:06:48;;;;;;;8.05;7.18;;;14.10;99.90;;;;;;5054343;28;20401;-79
2022/09/15 10:09:19;;;;;;;9.80;6.93;;;14.10;99.90;;;;;;5055517;28;20362;-79
2022/09/15 10:11:48;;;;;;;9.57;8.07;;;14.00;99.90;;;;;;5055314;28;20021;-79
2022/09/15 10:14:36;;;;;;;10.30;8.88;;;14.10;99.90;;;;;;5055271;28;20111;-78
2022/09/15 10:17:22;;;;;;;10.80;8.48;;;14.10;99.90;;;;;;5055378;28;20150;-79
2022/09/15 10:19:58;;;;;;;10.68;8.63;;;14.10;99.90;;;;;;5055488;28;20025;-81
2022/09/15 10:22:30;;;;;;;10.98;9.80;;;14.10;99.90;;;;;;5055251;28;20146;-80
2022/09/15 10:24:59;;;;;;;10.82;9.73;;;14.10;99.90;;;;;;5053963;28;20074;-79
2022/09/15 10:27:34;;;;;;;10.43;9.43;;;14.10;99.90;;;;;;5055204;28;20112;-79
2022/09/15 10:30:13;;;;;;;11.25;9.98;;;14.10;99.90;;;;;;5055375;28;20021;-79
2022/09/15 10:32:42;;;;;;;10.90;9.73;;;14.10;99.90;;;;;;5053154;28;20523;-78
2022/09/15 10:35:17;;;;;;;10.25;9.15;;;14.10;99.90;;;;;;5054160;28;20032;-78
2022/09/15 10:37:54;;;;;;;11.25;9.80;;;14.20;99.90;;;;;;5055163;28;20040;-79
2022/09/15 10:40:32;;;;;;;12.38;11.15;;;14.10;99.90;;;;;;5055197;28;20021;-79
2022/09/15 10:43:34;;;;;;;12.52;10.70;;;14.20;99.90;;;;;;5055206;28;20092;-78
2022/09/15 10:46:11;;;;;;;10.70;9.60;;;14.20;99.90;;;;;;5053847;28;20035;-80
2022/09/15 10:48:51;;;;;;;10.95;9.68;;;14.20;99.90;;;;;;5054731;28;20036;-79
2022/09/15 10:51:42;;;;;;;12.70;11.10;;;14.20;99.90;;;;;;5053262;28;20385;-79
2022/09/15 10:54:37;;;;;;;11.73;10.43;;;14.20;99.90;;;;;;5054971;28;20025;-79
2022/09/15 10:57:10;;;;;;;11.38;9.95;;;14.20;99.90;;;;;;5054954;28;20469;-79
2022/09/15 10:59:55;;;;;;;12.48;11.20;;;14.20;99.90;;;;;;5054601;28;20024;-79
2022/09/15 11:02:56;;;;;;;11.80;10.65;;;14.20;99.90;;;;;;5053179;28;20025;-78
2022/09/15 11:05:44;;;;;;;12.52;11.30;;;14.20;99.90;;;;;;5053026;28;20116;-79
2022/09/15 11:08:21;;;;;;;12.10;10.88;;;14.20;99.90;;;;;;5054623;28;20388;-79
2022/09/15 11:11:17;;;;;;;13.27;11.95;;;14.30;99.90;;;;;;5054758;28;20017;-81
2022/09/15 11:14:15;;;;;;;14.30;10.50;;;14.30;99.90;;;;;;5052870;28;20073;-79
2022/09/15 11:16:56;;;;;;;11.65;10.48;;;14.30;99.90;;;;;;5054538;28;20100;-79
2022/09/15 11:19:48;;;;;;;11.35;10.15;;;14.30;99.90;;;;;;5052945;28;20366;-79
2022/09/15 11:22:24;;;;;;;10.68;9.57;;;14.30;99.90;;;;;;5052811;28;20021;-80
2022/09/15 11:24:59;;;;;;;9.02;8.13;;;14.30;99.90;;;;;;5054021;28;20108;-78
2022/09/15 11:28:02;;;;;;;8.07;7.40;;;14.30;99.90;;;;;;5054177;28;20043;-79
2022/09/15 11:30:38;;;;;;;8.20;7.50;;;14.20;99.90;;;;;;5035374;28;20041;-79
2022/09/15 11:33:24;;;;;;;8.20;7.40;;;14.30;99.90;;;;;;5053902;28;20369;-80
2022/09/15 11:36:29;;;;;;;8.73;7.88;;;14.30;99.90;;;;;;5053957;28;20021;-79
2022/09/15 11:39:03;;;;;;;9.00;8.20;;;14.20;99.90;;;;;;5047687;28;20036;-79
2022/09/15 11:41:34;;;;;;;9.18;8.30;;;14.30;99.90;;;;;;5053614;28;20029;-78
2022/09/15 11:44:40;;;;;;;9.10;8.30;;;14.30;99.90;;;;;;5052318;28;20025;-77
2022/09/15 11:47:25;;;;;;;9.15;8.32;;;14.30;99.90;;;;;;5054221;28;20029;-77
2022/09/15 11:50:01;;;;;;;9.65;8.85;;;14.30;99.90;;;;;;5053595;28;20025;-78
2022/09/15 11:52:46;;;;;;;8.98;8.25;;;14.30;99.90;;;;;;5052234;28;20033;-77
2022/09/15 11:55:21;;;;;;;9.50;8.60;;;14.30;99.90;;;;;;5052203;28;20504;-79
2022/09/15 11:58:05;;;;;;;10.25;9.35;;;14.30;99.90;;;;;;5053580;28;20028;-79
2022/09/15 12:00:39;;;;;;;10.63;9.55;;;14.30;99.90;;;;;;5052211;28;20028;-79
2022/09/15 12:03:32;;;;;;;12.35;11.20;;;14.30;99.90;;;;;;5052180;28;20021;-79
2022/09/15 12:06:31;;;;;;;12.02;10.82;;;14.30;99.90;;;;;;5053424;28;20481;-78
2022/09/15 12:09:10;;;;;;;12.80;11.60;;;14.30;99.90;;;;;;5043848;28;20175;-80
2022/09/15 12:11:51;;;;;;;16.98;15.27;;;14.30;99.90;;;;;;5053679;28;20105;-80
2022/09/15 12:14:51;;;;;;;18.33;16.52;;;14.40;99.90;;;;;;5052001;28;20037;-79
2022/09/15 12:17:24;;;;;;;18.60;16.90;;;14.40;99.90;;;;;;5051916;28;20025;-79
2022/09/15 12:20:10;;;;;;;18.02;16.33;;;14.40;99.90;;;;;;5053221;28;20362;-78
2022/09/15 12:22:43;;;;;;;19.48;17.52;;;14.40;99.90;;;;;;5053085;28;20017;-79
2022/09/15 12:25:39;;;;;;;18.77;16.88;;;14.30;99.90;;;;;;5053312;28;20025;-79
2022/09/15 12:28:22;;;;;;;17.80;16.08;;;14.30;99.90;;;;;;5053432;28;20021;-79
2022/09/15 12:31:10;;;;;;;20.23;18.30;;;14.30;99.90;;;;;;5051972;28;20061;-78
2022/09/15 12:33:45;;;;;;;19.75;17.83;;;14.30;99.90;;;;;;5052713;28;20444;-77
2022/09/15 12:36:41;;;;;;;19.50;17.60;;;14.30;99.90;;;;;;5053194;28;20017;-78
2022/09/15 12:39:21;;;;;;;19.60;17.73;;;14.30;99.90;;;;;;5051860;28;20120;-79
2022/09/15 12:41:56;;;;;;;19.85;17.88;;;14.20;99.90;;;;;;5051804;28;20028;-78
2022/09/15 12:44:37;;;;;;;19.50;17.70;;;14.10;99.90;;;;;;5051680;28;20040;-78
2022/09/15 12:47:16;;;;;;;17.80;16.08;;;14.00;99.90;;;;;;5053021;28;20025;-79
2022/09/15 12:49:47;;;;;;;17.45;15.73;;;14.00;99.90;;;;;;5052164;28;20033;-80
2022/09/15 12:52:14;;;;;;;18.23;16.45;;;13.90;99.90;;;;;;5052969;28;20107;-78
2022/09/15 12:54:44;;;;;;;15.98;14.43;;;13.90;99.90;;;;;;5052864;28;20410;-78
2022/09/15 12:57:33;;;;;;;15.60;14.10;;;13.80;99.90;;;;;;5051607;28;20017;-80
2022/09/15 13:00:36;;;;;;;16.13;14.52;;;13.70;99.90;;;;;;5052907;28;20100;-79
2022/09/15 13:03:06;;;;;;;15.02;13.63;;;13.70;99.90;;;;;;5051615;28;20024;-79
2022/09/15 13:05:44;;;;;;;15.10;13.70;;;13.70;99.90;;;;;;5052963;28;20393;-80
2022/09/15 13:08:33;;;;;;;15.18;13.75;;;13.70;99.90;;;;;;5051496;28;20022;-79
2022/09/15 13:11:30;;;;;;;13.48;12.18;;;13.70;99.90;;;;;;5052228;28;20460;-79
2022/09/15 13:14:06;;;;;;;12.35;11.15;;;13.60;99.90;;;;;;5052066;28;20044;-79
2022/09/15 13:16:55;;;;;;;13.10;11.80;;;13.60;99.90;;;;;;5051363;28;20025;-78
2022/09/15 13:19:40;;;;;;;11.60;10.50;;;13.50;99.90;;;;;;5052864;28;20017;-79